Time;durP1;ratioP1;P1;durP2;ratioP2;P2;SDS_P1;SDS_P2;PMS_P1;PMS_P2;Temp;Humidity;BMP_temperature;BMP_pressure;BME280_temperature;BME280_humidity;BME280_pressure;Samples;Min_cycle;Max_cycle;Signal;HPM_P1;HPM_P2
2021/06/14 00:01:43;;;;;;;2.80;2.60;;;;;;;;;;5080182;28;20257;-80
2021/06/14 00:04:09;;;;;;;2.78;2.40;;;;;;;;;;5080319;28;20683;-79
2021/06/14 00:06:35;;;;;;;3.35;2.60;;;;;;;;;;5081026;28;20196;-80
2021/06/14 00:09:03;;;;;;;4.18;2.92;;;;;;;;;;5099410;28;20529;-80
2021/06/14 00:11:29;;;;;;;3.50;2.65;;;;;;;;;;5082027;28;20188;-79
2021/06/14 00:13:55;;;;;;;3.17;2.75;;;;;;;;;;5080545;28;20180;-80
2021/06/14 00:16:21;;;;;;;2.90;2.60;;;;;;;;;;5080307;28;20180;-79
2021/06/14 00:18:47;;;;;;;3.13;2.83;;;;;;;;;;5078854;28;20192;-80
2021/06/14 00:21:13;;;;;;;5.00;3.00;;;;;;;;;;5083431;28;20422;-79
2021/06/14 00:23:40;;;;;;;3.33;3.00;;;;;;;;;;5096501;28;20490;-79
2021/06/14 00:26:09;;;;;;;3.20;2.97;;;;;;;;;;5080179;28;20194;-80
2021/06/14 00:28:35;;;;;;;3.88;3.10;;;;;;;;;;5081103;28;20176;-79
2021/06/14 00:31:01;;;;;;;5.35;2.95;;;;;;;;;;5081834;28;20263;-80
2021/06/14 00:33:27;;;;;;;4.05;2.78;;;;;;;;;;5079199;28;20192;-80
2021/06/14 00:35:53;;;;;;;3.40;3.15;;;;;;;;;;5082399;28;20224;-80
2021/06/14 00:38:20;;;;;;;4.15;3.00;;;;;;;;;;5080336;28;20183;-80
2021/06/14 00:40:46;;;;;;;3.97;3.05;;;;;;;;;;5080295;28;20215;-80
2021/06/14 00:43:12;;;;;;;3.95;2.70;;;;;;;;;;5081498;28;20183;-80
2021/06/14 00:45:40;;;;;;;3.13;2.80;;;;;;;;;;5080175;28;20180;-79
2021/06/14 00:48:07;;;;;;;4.05;3.15;;;;;;;;;;5077896;28;20228;-79
2021/06/14 00:50:36;;;;;;;6.05;2.95;;;;;;;;;;5081728;28;20184;-80
2021/06/14 00:53:02;;;;;;;6.40;2.97;;;;;;;;;;5081055;28;20688;-80
2021/06/14 00:55:28;;;;;;;3.13;2.92;;;;;;;;;;5081233;28;20204;-79
2021/06/14 00:57:54;;;;;;;3.13;2.80;;;;;;;;;;5080399;28;20184;-79
2021/06/14 01:00:21;;;;;;;2.90;2.65;;;;;;;;;;5082423;28;20200;-79
2021/06/14 01:02:47;;;;;;;4.15;3.20;;;;;;;;;;5082912;28;20183;-80
2021/06/14 01:05:14;;;;;;;4.00;3.43;;;;;;;;;;5085594;28;20216;-80
2021/06/14 01:07:40;;;;;;;3.13;2.92;;;;;;;;;;5085007;28;20434;-80
2021/06/14 01:10:07;;;;;;;3.20;2.90;;;;;;;;;;5084177;28;20575;-79
2021/06/14 01:12:40;;;;;;;3.08;2.88;;;;;;;;;;5084288;28;20187;-79
2021/06/14 01:15:14;;;;;;;4.65;2.70;;;;;;;;;;5081679;28;20196;-79
2021/06/14 01:17:53;;;;;;;2.88;2.67;;;;;;;;;;5096927;28;20371;-79
2021/06/14 01:20:23;;;;;;;3.67;2.90;;;;;;;;;;5085114;28;20184;-79
2021/06/14 01:23:08;;;;;;;4.63;3.22;;;;;;;;;;5084931;28;20188;-80
2021/06/14 01:25:52;;;;;;;5.90;3.63;;;;;;;;;;5084650;28;20205;-80
2021/06/14 01:28:19;;;;;;;5.63;3.38;;;;;;;;;;5084097;28;20252;-80
2021/06/14 01:30:46;;;;;;;3.00;2.40;;;;;;;;;;5083218;28;20242;-80
2021/06/14 01:33:13;;;;;;;3.45;3.15;;;;;;;;;;5086033;28;20184;-80
2021/06/14 01:35:44;;;;;;;3.47;2.90;;;;;;;;;;5083763;28;20290;-80
2021/06/14 01:38:10;;;;;;;3.17;2.88;;;;;;;;;;5084916;28;20181;-80
2021/06/14 01:40:37;;;;;;;3.95;3.20;;;;;;;;;;5085019;28;20192;-80
2021/06/14 01:43:05;;;;;;;3.90;3.03;;;;;;;;;;5084743;28;20241;-80
2021/06/14 01:45:32;;;;;;;3.00;2.70;;;;;;;;;;5082341;28;20575;-79
2021/06/14 01:47:59;;;;;;;4.93;3.75;;;;;;;;;;5100790;28;20480;-80
2021/06/14 01:50:27;;;;;;;3.70;3.33;;;;;;;;;;5083220;28;20188;-79
2021/06/14 01:52:53;;;;;;;4.32;2.97;;;;;;;;;;5084751;28;20649;-80
2021/06/14 01:55:21;;;;;;;4.32;3.00;;;;;;;;;;5082524;28;20235;-80
2021/06/14 01:57:47;;;;;;;5.45;3.28;;;;;;;;;;5081862;28;20557;-80
2021/06/14 02:00:14;;;;;;;4.03;3.33;;;;;;;;;;5083602;28;20258;-80
2021/06/14 02:02:40;;;;;;;4.32;3.05;;;;;;;;;;5086710;28;20199;-80
2021/06/14 02:05:07;;;;;;;3.67;2.40;;;;;;;;;;5079319;28;20260;-80
2021/06/14 02:07:33;;;;;;;4.90;3.20;;;;;;;;;;5083912;28;20188;-80
2021/06/14 02:09:59;;;;;;;3.80;3.10;;;;;;;;;;5084219;28;22321;-80
2021/06/14 02:12:26;;;;;;;3.20;2.90;;;;;;;;;;5083411;28;20181;-80
2021/06/14 02:14:52;;;;;;;3.40;3.03;;;;;;;;;;5098250;28;20454;-80
2021/06/14 02:17:20;;;;;;;4.57;3.20;;;;;;;;;;5083841;28;20188;-80
2021/06/14 02:19:47;;;;;;;3.53;3.13;;;;;;;;;;5084560;28;20203;-80
2021/06/14 02:22:14;;;;;;;6.70;2.88;;;;;;;;;;5084059;28;20173;-80
2021/06/14 02:24:41;;;;;;;5.82;3.08;;;;;;;;;;5081107;28;20212;-80
2021/06/14 02:27:08;;;;;;;3.17;2.88;;;;;;;;;;5086386;28;20222;-80
2021/06/14 02:29:34;;;;;;;7.22;3.35;;;;;;;;;;5084255;28;20185;-80
2021/06/14 02:32:00;;;;;;;2.55;2.35;;;;;;;;;;5083448;28;20190;-80
2021/06/14 02:34:26;;;;;;;4.18;3.63;;;;;;;;;;5083300;28;20265;-80
2021/06/14 02:36:53;;;;;;;5.20;4.00;;;;;;;;;;5081794;28;20183;-80
2021/06/14 02:39:22;;;;;;;4.70;3.45;;;;;;;;;;5084113;28;20643;-80
2021/06/14 02:41:48;;;;;;;3.75;3.03;;;;;;;;;;5083485;28;20171;-80
2021/06/14 02:44:15;;;;;;;5.93;3.45;;;;;;;;;;5081535;28;20611;-80
2021/06/14 02:46:42;;;;;;;3.80;3.45;;;;;;;;;;5083095;28;20235;-80
2021/06/14 02:49:08;;;;;;;3.50;3.15;;;;;;;;;;5081147;28;20190;-80
2021/06/14 02:51:36;;;;;;;4.18;2.80;;;;;;;;;;5081434;28;20184;-80
2021/06/14 02:54:04;;;;;;;3.28;2.97;;;;;;;;;;5085134;28;20173;-80
2021/06/14 02:56:30;;;;;;;4.28;2.95;;;;;;;;;;5081773;28;20181;-80
2021/06/14 02:58:57;;;;;;;3.58;3.15;;;;;;;;;;5079177;28;20186;-80
2021/06/14 03:01:22;;;;;;;3.83;2.95;;;;;;;;;;5087098;28;20185;-80
2021/06/14 03:03:49;;;;;;;4.67;3.20;;;;;;;;;;5081909;28;20177;-79
2021/06/14 03:06:16;;;;;;;3.67;3.05;;;;;;;;;;5083167;28;20432;-80
2021/06/14 03:08:42;;;;;;;3.50;3.05;;;;;;;;;;5084626;28;20187;-80
2021/06/14 03:11:08;;;;;;;3.80;3.50;;;;;;;;;;5082426;28;20591;-79
2021/06/14 03:13:35;;;;;;;8.07;3.40;;;;;;;;;;5083050;28;20198;-79
2021/06/14 03:16:01;;;;;;;5.25;3.05;;;;;;;;;;5082619;28;20257;-79
2021/06/14 03:18:27;;;;;;;4.32;3.30;;;;;;;;;;5081392;28;20581;-80
2021/06/14 03:20:54;;;;;;;3.67;3.30;;;;;;;;;;5083718;28;20179;-79
2021/06/14 03:23:21;;;;;;;4.25;3.40;;;;;;;;;;5081613;28;20184;-80
2021/06/14 03:25:47;;;;;;;3.40;2.67;;;;;;;;;;5080168;28;20184;-80
2021/06/14 03:28:15;;;;;;;3.50;3.20;;;;;;;;;;5081365;28;20383;-80
2021/06/14 03:30:41;;;;;;;3.50;3.20;;;;;;;;;;5080372;28;20180;-79
2021/06/14 03:33:09;;;;;;;10.23;3.20;;;;;;;;;;5084056;28;20175;-79
2021/06/14 03:35:35;;;;;;;3.75;3.40;;;;;;;;;;5082836;28;20206;-80
2021/06/14 03:38:02;;;;;;;4.97;3.30;;;;;;;;;;5080631;28;20188;-80
2021/06/14 03:40:28;;;;;;;14.55;3.30;;;;;;;;;;5080625;28;20177;-79
2021/06/14 03:43:01;;;;;;;3.60;2.97;;;;;;;;;;5081295;28;20654;-79
2021/06/14 03:45:28;;;;;;;3.28;2.92;;;;;;;;;;5082478;28;20260;-79
2021/06/14 03:47:54;;;;;;;5.15;2.50;;;;;;;;;;5082647;28;20226;-80
2021/06/14 03:50:20;;;;;;;3.30;2.95;;;;;;;;;;5082592;28;20224;-80
2021/06/14 03:52:46;;;;;;;4.05;3.20;;;;;;;;;;5081596;28;20197;-80
2021/06/14 03:55:12;;;;;;;3.40;3.00;;;;;;;;;;5081143;28;20283;-79
2021/06/14 03:57:39;;;;;;;5.05;3.63;;;;;;;;;;5080976;28;20436;-80
2021/06/14 04:00:08;;;;;;;3.67;3.28;;;;;;;;;;5083472;28;20286;-79
2021/06/14 04:02:34;;;;;;;3.65;3.20;;;;;;;;;;5082260;28;20186;-79
2021/06/14 04:05:00;;;;;;;3.63;3.08;;;;;;;;;;5082037;28;20256;-79
2021/06/14 04:07:26;;;;;;;3.10;2.80;;;;;;;;;;5080471;28;20273;-80
2021/06/14 04:09:54;;;;;;;3.97;3.58;;;;;;;;;;5080523;28;20521;-80
2021/06/14 04:12:20;;;;;;;4.28;3.33;;;;;;;;;;5081670;28;20171;-80
2021/06/14 04:14:46;;;;;;;6.90;3.50;;;;;;;;;;5081744;28;20245;-80
2021/06/14 04:17:12;;;;;;;4.65;2.50;;;;;;;;;;5080469;28;20215;-79
2021/06/14 04:19:38;;;;;;;4.90;2.92;;;;;;;;;;5081528;28;20187;-80
2021/06/14 04:22:05;;;;;;;5.78;3.80;;;;;;;;;;5079993;28;20177;-80
2021/06/14 04:24:31;;;;;;;3.40;3.08;;;;;;;;;;5080583;28;20200;-80
2021/06/14 04:26:57;;;;;;;4.78;2.80;;;;;;;;;;5082540;28;20259;-79
2021/06/14 04:29:23;;;;;;;3.85;3.00;;;;;;;;;;5079297;28;20243;-79
2021/06/14 04:31:49;;;;;;;4.85;3.22;;;;;;;;;;5080331;28;20186;-80
2021/06/14 04:34:15;;;;;;;3.42;2.97;;;;;;;;;;5079476;28;20191;-80
2021/06/14 04:36:41;;;;;;;3.70;3.40;;;;;;;;;;5080088;28;20248;-80
2021/06/14 04:39:08;;;;;;;4.30;3.00;;;;;;;;;;5086338;28;20177;-80
2021/06/14 04:41:34;;;;;;;3.78;3.47;;;;;;;;;;5086455;28;20178;-79
2021/06/14 04:44:01;;;;;;;5.63;2.95;;;;;;;;;;5083671;28;20212;-80
2021/06/14 04:46:27;;;;;;;3.60;3.30;;;;;;;;;;5082996;28;20235;-80
2021/06/14 04:48:53;;;;;;;3.83;3.33;;;;;;;;;;5083379;28;20551;-80
2021/06/14 04:51:19;;;;;;;5.35;3.03;;;;;;;;;;5087510;28;20488;-80
2021/06/14 04:53:45;;;;;;;7.80;3.90;;;;;;;;;;5084805;28;20176;-80
2021/06/14 04:56:11;;;;;;;7.30;3.50;;;;;;;;;;5084401;28;20466;-80
2021/06/14 04:58:38;;;;;;;4.28;3.70;;;;;;;;;;5085789;28;20186;-80
2021/06/14 05:01:04;;;;;;;3.40;3.08;;;;;;;;;;5085428;28;20629;-80
2021/06/14 05:03:30;;;;;;;3.50;3.20;;;;;;;;;;5084143;28;20191;-80
2021/06/14 05:05:56;;;;;;;5.45;3.75;;;;;;;;;;5098972;28;20283;-80
2021/06/14 05:08:22;;;;;;;4.10;3.42;;;;;;;;;;5084020;28;20191;-80
2021/06/14 05:10:49;;;;;;;5.82;3.58;;;;;;;;;;5084871;28;20364;-80
2021/06/14 05:13:15;;;;;;;3.60;3.30;;;;;;;;;;5093001;28;20187;-81
2021/06/14 05:15:41;;;;;;;3.63;3.05;;;;;;;;;;5082877;28;20239;-80
2021/06/14 05:18:07;;;;;;;5.25;3.63;;;;;;;;;;5086598;28;20176;-80
2021/06/14 05:20:33;;;;;;;3.30;3.10;;;;;;;;;;5083712;28;20176;-80
2021/06/14 05:22:59;;;;;;;3.42;3.10;;;;;;;;;;5082608;28;20201;-80
2021/06/14 05:25:26;;;;;;;3.78;3.25;;;;;;;;;;5083537;28;20168;-80
2021/06/14 05:27:52;;;;;;;4.55;3.78;;;;;;;;;;5083310;28;20181;-80
2021/06/14 05:30:19;;;;;;;3.78;3.45;;;;;;;;;;5085425;28;20180;-81
2021/06/14 05:32:45;;;;;;;4.55;3.75;;;;;;;;;;5085412;28;20177;-81
2021/06/14 05:35:11;;;;;;;5.65;3.95;;;;;;;;;;5083465;28;20234;-81
2021/06/14 05:37:38;;;;;;;3.90;3.50;;;;;;;;;;5082285;28;20211;-80
2021/06/14 05:40:05;;;;;;;4.95;4.25;;;;;;;;;;5084386;28;20180;-81
2021/06/14 05:42:30;;;;;;;4.40;3.95;;;;;;;;;;5082968;28;20400;-80
2021/06/14 05:44:56;;;;;;;6.23;3.47;;;;;;;;;;5086252;28;20206;-80
2021/06/14 05:47:23;;;;;;;5.28;4.78;;;;;;;;;;5081880;28;20462;-81
2021/06/14 05:49:49;;;;;;;7.78;6.18;;;;;;;;;;5084641;28;20188;-81
2021/06/14 05:52:15;;;;;;;6.50;5.90;;;;;;;;;;5084357;28;20205;-80
2021/06/14 05:54:41;;;;;;;6.63;5.60;;;;;;;;;;5084303;28;20489;-80
2021/06/14 05:57:08;;;;;;;6.05;5.40;;;;;;;;;;5085552;28;20468;-82
2021/06/14 05:59:34;;;;;;;5.70;4.43;;;;;;;;;;5084711;28;20173;-82
2021/06/14 06:02:00;;;;;;;7.68;5.25;;;;;;;;;;5082835;28;20219;-82
2021/06/14 06:04:26;;;;;;;6.20;3.70;;;;;;;;;;5082456;28;20226;-82
2021/06/14 06:06:52;;;;;;;6.13;4.17;;;;;;;;;;5082330;28;20177;-81
2021/06/14 06:09:18;;;;;;;4.38;3.90;;;;;;;;;;5084475;28;20436;-82
2021/06/14 06:11:44;;;;;;;5.35;4.40;;;;;;;;;;5084352;28;20634;-81
2021/06/14 06:14:10;;;;;;;7.72;4.28;;;;;;;;;;5084208;28;20191;-81
2021/06/14 06:16:36;;;;;;;7.30;4.57;;;;;;;;;;5081924;28;20547;-80
2021/06/14 06:19:02;;;;;;;3.90;3.47;;;;;;;;;;5083707;28;20439;-82
2021/06/14 06:21:28;;;;;;;6.53;4.60;;;;;;;;;;5084013;28;20718;-81
2021/06/14 06:23:54;;;;;;;4.18;2.78;;;;;;;;;;5084513;28;20184;-81
2021/06/14 06:26:20;;;;;;;4.18;3.60;;;;;;;;;;5084269;28;20188;-80
2021/06/14 06:28:46;;;;;;;4.20;3.73;;;;;;;;;;5083490;28;20180;-81
2021/06/14 06:31:12;;;;;;;5.93;4.03;;;;;;;;;;5083909;28;20935;-81
2021/06/14 06:33:41;;;;;;;7.10;4.47;;;;;;;;;;5081743;28;20454;-80
2021/06/14 06:36:07;;;;;;;4.20;3.35;;;;;;;;;;5081523;28;20479;-80
2021/06/14 06:38:33;;;;;;;5.68;3.88;;;;;;;;;;5082286;28;20192;-80
2021/06/14 06:40:59;;;;;;;4.07;3.75;;;;;;;;;;5083507;28;20562;-80
2021/06/14 06:43:25;;;;;;;5.37;3.47;;;;;;;;;;5082477;28;20181;-80
2021/06/14 06:45:51;;;;;;;7.67;4.07;;;;;;;;;;5082963;28;20426;-81
2021/06/14 06:48:17;;;;;;;4.80;3.20;;;;;;;;;;5083915;28;20836;-81
2021/06/14 06:50:43;;;;;;;4.90;3.70;;;;;;;;;;5082650;28;20183;-80
2021/06/14 06:53:09;;;;;;;5.07;3.60;;;;;;;;;;5081782;28;20525;-82
2021/06/14 06:55:35;;;;;;;4.75;3.47;;;;;;;;;;5083661;28;20202;-81
2021/06/14 06:58:03;;;;;;;7.70;3.63;;;;;;;;;;5080993;28;20181;-81
2021/06/14 07:00:30;;;;;;;6.30;3.72;;;;;;;;;;5078263;28;20251;-78
2021/06/14 07:02:56;;;;;;;4.13;3.50;;;;;;;;;;5084243;28;20178;-78
2021/06/14 07:05:22;;;;;;;5.05;4.50;;;;;;;;;;5081142;28;20189;-78
2021/06/14 07:07:48;;;;;;;4.40;3.75;;;;;;;;;;5082141;28;20201;-78
2021/06/14 07:10:14;;;;;;;8.15;3.80;;;;;;;;;;5075715;28;20177;-78
2021/06/14 07:12:40;;;;;;;3.58;3.28;;;;;;;;;;5083040;28;20181;-78
2021/06/14 07:15:11;;;;;;;8.50;3.60;;;;;;;;;;5076228;28;20218;-78
2021/06/14 07:17:39;;;;;;;8.77;4.47;;;;;;;;;;5077989;28;20186;-77
2021/06/14 07:20:06;;;;;;;5.80;4.32;;;;;;;;;;5079371;28;20252;-77
2021/06/14 07:22:32;;;;;;;6.47;3.85;;;;;;;;;;5081765;28;20178;-78
2021/06/14 07:24:58;;;;;;;4.73;3.37;;;;;;;;;;5080436;28;20229;-77
2021/06/14 07:27:24;;;;;;;7.40;3.87;;;;;;;;;;5082122;28;20425;-78
2021/06/14 07:29:50;;;;;;;2.90;2.70;;;;;;;;;;5073291;28;20426;-78
2021/06/14 07:32:16;;;;;;;4.20;3.80;;;;;;;;;;5079727;28;20440;-77
2021/06/14 07:34:42;;;;;;;4.77;2.87;;;;;;;;;;5080827;28;20208;-78
2021/06/14 07:37:09;;;;;;;3.93;3.50;;;;;;;;;;5081320;28;20401;-77
2021/06/14 07:39:35;;;;;;;5.22;3.20;;;;;;;;;;5080808;28;20434;-77
2021/06/14 07:42:01;;;;;;;3.93;3.40;;;;;;;;;;5076123;28;20181;-77
2021/06/14 07:44:26;;;;;;;6.57;3.20;;;;;;;;;;5078922;28;20424;-78
2021/06/14 07:46:53;;;;;;;3.93;3.30;;;;;;;;;;5081655;28;20482;-78
2021/06/14 07:49:19;;;;;;;3.97;3.33;;;;;;;;;;5080848;28;20442;-78
2021/06/14 07:51:45;;;;;;;4.03;3.13;;;;;;;;;;5082319;28;20438;-77
2021/06/14 07:54:11;;;;;;;4.07;2.63;;;;;;;;;;5081833;28;20456;-77
2021/06/14 07:56:43;;;;;;;4.03;3.20;;;;;;;;;;5080274;28;20627;-77
2021/06/14 07:59:09;;;;;;;8.47;3.07;;;;;;;;;;5079435;28;20525;-77
2021/06/14 08:01:35;;;;;;;4.13;2.83;;;;;;;;;;5077933;28;20466;-77
2021/06/14 08:04:01;;;;;;;4.13;2.90;;;;;;;;;;5080473;28;20445;-77
2021/06/14 08:06:27;;;;;;;3.30;3.00;;;;;;;;;;5080063;28;20420;-76
2021/06/14 08:08:53;;;;;;;4.63;3.10;;;;;;;;;;5080341;28;20385;-76
2021/06/14 08:11:19;;;;;;;6.70;3.40;;;;;;;;;;5079826;28;20485;-78
2021/06/14 08:13:46;;;;;;;3.67;2.70;;;;;;;;;;5079856;28;20409;-77
2021/06/14 08:16:12;;;;;;;3.53;3.33;;;;;;;;;;5079568;28;20437;-78
2021/06/14 08:18:47;;;;;;;6.07;3.90;;;;;;;;;;5078827;28;20485;-77
2021/06/14 08:26:29;;;;;;;7.30;3.00;;;;;;;;;;5075128;28;20413;-77
2021/06/14 08:28:57;;;;;;;13.50;3.60;;;;;;;;;;5074559;28;20486;-77
2021/06/14 08:31:23;;;;;;;3.47;2.93;;;;;;;;;;5071864;28;20405;-77
2021/06/14 08:33:49;;;;;;;4.37;3.13;;;;;;;;;;5076518;28;20428;-78
2021/06/14 08:36:15;;;;;;;3.50;2.77;;;;;;;;;;5071536;28;20463;-78
2021/06/14 08:38:41;;;;;;;2.60;2.33;;;;;;;;;;5078079;28;20397;-77
2021/06/14 08:41:07;;;;;;;5.00;3.00;;;;;;;;;;5076935;28;20430;-77
2021/06/14 08:43:33;;;;;;;3.50;2.83;;;;;;;;;;5076268;28;20413;-77
2021/06/14 08:45:59;;;;;;;3.07;2.67;;;;;;;;;;5077580;28;20439;-77
2021/06/14 08:48:26;;;;;;;5.33;3.57;;;;;;;;;;5075505;28;20634;-78
2021/06/14 08:50:52;;;;;;;5.63;3.00;;;;;;;;;;5072665;28;20402;-78
2021/06/14 08:53:19;;;;;;;3.50;3.20;;;;;;;;;;5075563;28;20475;-78
2021/06/14 08:55:45;;;;;;;4.13;2.50;;;;;;;;;;5077061;28;20476;-77
2021/06/14 08:58:11;;;;;;;2.57;2.37;;;;;;;;;;5077026;28;20430;-78
2021/06/14 09:00:38;;;;;;;4.40;2.90;;;;;;;;;;5070190;28;20437;-78
2021/06/14 09:03:04;;;;;;;3.80;2.93;;;;;;;;;;5073459;28;20438;-78
2021/06/14 09:05:30;;;;;;;5.20;2.97;;;;;;;;;;5071751;28;20489;-78
2021/06/14 09:07:56;;;;;;;3.27;2.67;;;;;;;;;;5079473;28;20409;-77
2021/06/14 09:10:22;;;;;;;3.30;2.70;;;;;;;;;;5080301;28;20412;-80
2021/06/14 09:12:48;;;;;;;3.03;2.47;;;;;;;;;;5072187;28;20418;-81
2021/06/14 09:15:14;;;;;;;2.83;2.20;;;;;;;;;;5080867;28;20478;-82
2021/06/14 09:17:51;;;;;;;2.53;2.30;;;;;;;;;;5093097;28;20468;-80
2021/06/14 09:20:17;;;;;;;5.20;2.50;;;;;;;;;;5081468;28;20397;-84
2021/06/14 09:22:43;;;;;;;3.63;2.60;;;;;;;;;;5081624;28;20486;-81
2021/06/14 09:25:10;;;;;;;4.63;2.57;;;;;;;;;;5083902;28;20439;-81
2021/06/14 09:27:41;;;;;;;3.60;2.70;;;;;;;;;;5080911;28;20419;-82
2021/06/14 09:30:27;;;;;;;4.23;2.43;;;;;;;;;;5081512;28;20422;-81
2021/06/14 09:32:56;;;;;;;2.90;2.60;;;;;;;;;;5086146;28;20402;-82
2021/06/14 09:35:23;;;;;;;6.53;3.30;;;;;;;;;;5082893;28;20466;-81
2021/06/14 09:38:16;;;;;;;3.57;1.87;;;;;;;;;;5083346;28;20479;-83
2021/06/14 09:40:44;;;;;;;3.97;2.60;;;;;;;;;;5082277;28;20428;-83
2021/06/14 09:43:26;;;;;;;3.87;2.70;;;;;;;;;;5082712;28;20417;-80
2021/06/14 09:45:52;;;;;;;5.40;2.50;;;;;;;;;;5098185;28;20429;-83
2021/06/14 09:48:22;;;;;;;3.00;2.03;;;;;;;;;;5083183;28;20460;-83
2021/06/14 09:50:49;;;;;;;2.37;2.17;;;;;;;;;;5085074;28;20431;-83
2021/06/14 09:53:16;;;;;;;2.60;2.10;;;;;;;;;;5077776;28;20475;-84
2021/06/14 09:55:43;;;;;;;2.57;2.37;;;;;;;;;;5074094;28;20434;-82
2021/06/14 09:58:19;;;;;;;2.70;2.50;;;;;;;;;;5081464;28;20537;-80
2021/06/14 10:01:05;;;;;;;2.73;2.53;;;;;;;;;;5076526;28;20436;-80
2021/06/14 10:04:00;;;;;;;3.43;2.60;;;;;;;;;;5085233;28;20549;-81
2021/06/14 10:06:28;;;;;;;2.73;2.20;;;;;;;;;;5078383;28;20399;-81
2021/06/14 10:08:54;;;;;;;4.73;2.60;;;;;;;;;;5084744;28;20407;-82
2021/06/14 10:11:20;;;;;;;3.23;2.93;;;;;;;;;;5083502;28;20437;-84
2021/06/14 10:13:47;;;;;;;5.27;2.57;;;;;;;;;;5082546;28;20445;-84
2021/06/14 10:16:14;;;;;;;5.90;2.27;;;;;;;;;;5086428;28;20456;-81
2021/06/14 10:18:42;;;;;;;5.23;3.17;;;;;;;;;;5082419;28;20453;-80
2021/06/14 10:21:09;;;;;;;6.50;2.37;;;;;;;;;;5080670;28;20508;-81
2021/06/14 10:23:36;;;;;;;2.80;2.50;;;;;;;;;;5084361;28;20426;-82
2021/06/14 10:26:02;;;;;;;3.07;2.30;;;;;;;;;;5076153;28;20438;-83
2021/06/14 10:28:29;;;;;;;2.90;2.60;;;;;;;;;;5073944;28;20509;-86
2021/06/14 10:30:55;;;;;;;5.23;2.47;;;;;;;;;;5073179;28;20526;-85
2021/06/14 10:33:25;;;;;;;6.30;2.33;;;;;;;;;;5082435;28;20418;-83
2021/06/14 10:35:55;;;;;;;4.63;2.30;;;;;;;;;;5078004;28;20463;-83
2021/06/14 10:38:21;;;;;;;4.73;2.50;;;;;;;;;;5081339;28;20441;-84
2021/06/14 10:40:49;;;;;;;3.73;2.77;;;;;;;;;;5081121;28;20457;-84
2021/06/14 10:43:15;;;;;;;2.60;2.40;;;;;;;;;;5079807;28;20444;-82
2021/06/14 10:45:41;;;;;;;2.37;1.90;;;;;;;;;;5082442;28;20443;-84
2021/06/14 10:48:10;;;;;;;3.70;2.83;;;;;;;;;;5085393;28;20471;-84
2021/06/14 10:50:36;;;;;;;4.40;3.20;;;;;;;;;;5083144;28;20385;-84
2021/06/14 10:53:02;;;;;;;3.40;2.33;;;;;;;;;;5082965;28;20440;-83
2021/06/14 10:55:35;;;;;;;2.80;2.33;;;;;;;;;;5081702;28;20493;-83
2021/06/14 10:58:05;;;;;;;5.03;2.33;;;;;;;;;;5081613;28;20939;-85
2021/06/14 11:00:33;;;;;;;3.17;2.33;;;;;;;;;;5081931;28;21125;-82
2021/06/14 11:03:00;;;;;;;3.23;2.47;;;;;;;;;;5084031;28;20533;-82
2021/06/14 11:05:33;;;;;;;2.70;2.17;;;;;;;;;;5081662;28;20437;-84
2021/06/14 11:08:10;;;;;;;2.97;2.50;;;;;;;;;;5081483;28;20451;-83
2021/06/14 11:10:36;;;;;;;4.77;2.60;;;;;;;;;;5072640;28;20434;-85
2021/06/14 11:13:06;;;;;;;2.50;2.30;;;;;;;;;;5083022;28;20436;-84
2021/06/14 11:15:36;;;;;;;2.13;2.03;;;;;;;;;;5080844;28;20470;-86
2021/06/14 11:18:06;;;;;;;4.70;2.30;;;;;;;;;;5080413;28;20423;-85
2021/06/14 11:20:36;;;;;;;3.00;2.40;;;;;;;;;;5081753;28;20426;-85
2021/06/14 11:23:03;;;;;;;5.90;2.83;;;;;;;;;;5074164;28;20443;-83
2021/06/14 11:25:30;;;;;;;2.77;2.30;;;;;;;;;;5082505;28;20449;-84
2021/06/14 11:27:57;;;;;;;2.70;2.50;;;;;;;;;;5072642;28;20439;-84
2021/06/14 11:30:24;;;;;;;3.90;2.27;;;;;;;;;;5075682;28;20438;-81
2021/06/14 11:32:50;;;;;;;2.40;2.20;;;;;;;;;;5077658;28;20434;-82
2021/06/14 11:35:18;;;;;;;4.70;2.27;;;;;;;;;;5079525;28;20462;-84
2021/06/14 11:37:46;;;;;;;2.80;1.90;;;;;;;;;;5080350;28;20455;-84
2021/06/14 11:40:14;;;;;;;3.03;2.07;;;;;;;;;;5080252;28;20427;-85
2021/06/14 11:42:43;;;;;;;2.73;2.43;;;;;;;;;;5076549;28;20438;-85
2021/06/14 11:45:10;;;;;;;2.77;1.90;;;;;;;;;;5079433;28;20430;-84
2021/06/14 11:47:40;;;;;;;2.47;2.27;;;;;;;;;;5081751;28;20454;-83
2021/06/14 11:50:10;;;;;;;7.80;2.60;;;;;;;;;;5080483;28;20474;-84
2021/06/14 11:52:37;;;;;;;2.40;2.20;;;;;;;;;;5082627;28;21642;-84
2021/06/14 11:55:08;;;;;;;4.60;1.90;;;;;;;;;;5080133;28;20454;-86
2021/06/14 11:57:35;;;;;;;1.67;1.57;;;;;;;;;;5082647;28;20434;-86
2021/06/14 12:00:02;;;;;;;1.70;1.60;;;;;;;;;;5083803;28;20415;-85
2021/06/14 12:02:29;;;;;;;3.43;1.47;;;;;;;;;;5079282;28;20556;-83
2021/06/14 12:05:00;;;;;;;3.13;1.83;;;;;;;;;;5082328;28;20419;-82
2021/06/14 12:07:30;;;;;;;1.60;1.50;;;;;;;;;;5081342;28;20437;-84
2021/06/14 12:09:57;;;;;;;1.60;1.50;;;;;;;;;;5080535;28;20444;-84
2021/06/14 12:12:23;;;;;;;2.30;2.10;;;;;;;;;;5081971;28;20438;-84
2021/06/14 12:14:56;;;;;;;2.20;1.70;;;;;;;;;;5082436;28;20470;-84
2021/06/14 12:17:26;;;;;;;2.10;1.90;;;;;;;;;;5080707;28;20450;-85
2021/06/14 12:19:52;;;;;;;2.13;1.93;;;;;;;;;;5080295;28;20441;-85
2021/06/14 12:22:21;;;;;;;2.80;2.53;;;;;;;;;;5081447;28;20438;-82
2021/06/14 12:24:49;;;;;;;2.63;1.80;;;;;;;;;;5079862;28;20451;-82
2021/06/14 12:27:15;;;;;;;1.90;1.80;;;;;;;;;;5081949;28;20454;-80
2021/06/14 12:29:43;;;;;;;3.87;2.57;;;;;;;;;;5096791;28;20414;-79
2021/06/14 12:32:16;;;;;;;2.40;2.20;;;;;;;;;;5080929;28;20950;-80
2021/06/14 12:34:44;;;;;;;2.97;2.77;;;;;;;;;;5083629;28;20858;-81
2021/06/14 12:37:13;;;;;;;2.67;2.43;;;;;;;;;;5083938;28;20415;-81
2021/06/14 12:39:40;;;;;;;1.80;1.70;;;;;;;;;;5079694;28;20500;-80
2021/06/14 12:42:16;;;;;;;2.43;1.60;;;;;;;;;;5077335;28;20912;-81
2021/06/14 12:44:53;;;;;;;2.73;1.97;;;;;;;;;;5082983;28;20446;-82
2021/06/14 12:47:19;;;;;;;2.10;1.93;;;;;;;;;;5079554;28;20482;-81
2021/06/14 12:49:48;;;;;;;6.47;3.23;;;;;;;;;;5080338;28;20430;-79
2021/06/14 12:52:24;;;;;;;2.73;2.43;;;;;;;;;;5079750;28;20430;-79
2021/06/14 12:54:50;;;;;;;6.93;4.13;;;;;;;;;;5080430;28;20459;-82
2021/06/14 12:57:17;;;;;;;4.03;3.33;;;;;;;;;;5081978;28;20522;-80
2021/06/14 12:59:45;;;;;;;3.60;3.30;;;;;;;;;;5086321;28;20415;-83
2021/06/14 13:02:14;;;;;;;3.77;3.53;;;;;;;;;;5084837;28;20431;-82
2021/06/14 13:04:41;;;;;;;3.50;3.30;;;;;;;;;;5085307;28;20462;-81
2021/06/14 13:07:17;;;;;;;3.67;3.47;;;;;;;;;;5083889;28;20457;-81
2021/06/14 13:09:47;;;;;;;3.53;3.33;;;;;;;;;;5084321;28;20475;-83
2021/06/14 13:12:13;;;;;;;3.50;3.20;;;;;;;;;;5087210;28;20435;-83
2021/06/14 13:14:39;;;;;;;3.83;3.57;;;;;;;;;;5084852;28;20419;-81
2021/06/14 13:17:05;;;;;;;3.37;2.50;;;;;;;;;;5085380;28;20434;-81
2021/06/14 13:19:32;;;;;;;2.60;2.50;;;;;;;;;;5083840;28;20449;-82
2021/06/14 13:22:13;;;;;;;2.60;2.50;;;;;;;;;;5083958;28;20428;-79
2021/06/14 13:24:47;;;;;;;2.67;2.47;;;;;;;;;;5085072;28;20468;-80
2021/06/14 13:27:13;;;;;;;2.40;2.20;;;;;;;;;;5100928;28;20444;-79
2021/06/14 13:29:41;;;;;;;2.60;2.40;;;;;;;;;;5081931;28;20570;-79
2021/06/14 13:32:34;;;;;;;2.00;1.90;;;;;;;;;;5081193;28;20437;-80
2021/06/14 13:35:01;;;;;;;2.20;2.00;;;;;;;;;;5082516;28;20558;-80
2021/06/14 13:37:47;;;;;;;2.43;2.03;;;;;;;;;;5081052;28;20439;-79
2021/06/14 13:40:19;;;;;;;2.43;2.13;;;;;;;;;;5082223;28;20442;-79
2021/06/14 13:42:48;;;;;;;2.33;2.10;;;;;;;;;;5099738;28;20427;-79
2021/06/14 13:45:15;;;;;;;2.57;1.90;;;;;;;;;;5085530;28;20465;-80
2021/06/14 13:47:41;;;;;;;4.00;1.80;;;;;;;;;;5084262;28;20454;-78
2021/06/14 13:50:08;;;;;;;2.40;2.20;;;;;;;;;;5080731;28;20849;-78
2021/06/14 13:52:34;;;;;;;2.00;1.90;;;;;;;;;;5083710;28;20537;-77
2021/06/14 13:55:04;;;;;;;3.23;2.20;;;;;;;;;;5082501;28;20430;-84
2021/06/14 13:57:30;;;;;;;2.40;2.07;;;;;;;;;;5082492;28;20435;-81
2021/06/14 14:00:14;;;;;;;2.57;2.27;;;;;;;;;;5084494;28;20442;-79
2021/06/14 14:02:50;;;;;;;2.27;2.07;;;;;;;;;;5082265;28;20454;-78
2021/06/14 14:05:23;;;;;;;2.30;1.90;;;;;;;;;;5082852;28;20495;-80
2021/06/14 14:07:49;;;;;;;1.93;1.43;;;;;;;;;;5081930;28;20435;-79
2021/06/14 14:10:15;;;;;;;3.53;2.17;;;;;;;;;;5083787;28;20442;-79
2021/06/14 14:12:41;;;;;;;3.30;2.07;;;;;;;;;;5083198;28;20438;-80
2021/06/14 14:15:08;;;;;;;3.20;2.50;;;;;;;;;;5084337;28;20499;-79
2021/06/14 14:17:34;;;;;;;2.73;2.57;;;;;;;;;;5081340;28;20450;-79
2021/06/14 14:20:02;;;;;;;2.70;2.20;;;;;;;;;;5082128;28;20460;-80
2021/06/14 14:22:28;;;;;;;2.50;2.30;;;;;;;;;;5082500;28;20465;-80
2021/06/14 14:24:54;;;;;;;2.93;2.70;;;;;;;;;;5080598;28;20827;-78
2021/06/14 14:27:20;;;;;;;2.10;2.00;;;;;;;;;;5083847;28;20412;-78
2021/06/14 14:29:47;;;;;;;2.47;2.30;;;;;;;;;;5081585;28;20410;-79
2021/06/14 14:32:13;;;;;;;4.13;2.70;;;;;;;;;;5082455;28;20841;-78
2021/06/14 14:34:46;;;;;;;2.40;2.20;;;;;;;;;;5082983;28;20481;-79
2021/06/14 14:37:24;;;;;;;2.90;2.67;;;;;;;;;;5081694;28;20433;-77
2021/06/14 14:39:54;;;;;;;3.30;2.37;;;;;;;;;;5084151;28;20489;-79
2021/06/14 14:42:20;;;;;;;3.10;2.20;;;;;;;;;;5081847;28;20552;-79
2021/06/14 14:44:46;;;;;;;2.77;2.57;;;;;;;;;;5083109;28;20540;-78
2021/06/14 14:47:12;;;;;;;2.40;2.20;;;;;;;;;;5080527;28;20854;-79
2021/06/14 14:49:38;;;;;;;3.30;2.20;;;;;;;;;;5081227;28;20443;-79
2021/06/14 14:52:04;;;;;;;3.20;2.07;;;;;;;;;;5082146;28;20440;-77